Carriage Hill, Washington
Current Conditions -  °F | °C
As of 5:35 AM on Sunday 21 Dec 2014 (Local Time) from KCLS Reporting Station
Scattered Clouds Scattered Clouds  
Wind Chill: 52°   Ceiling: Unl
Heat Index: 52°   Visibility: 10mi
Dew Point: 50°   Wind: 6mph
Humidity: 94%   Direction: 230°SW
Pressure: 29.84"   Gusts: NA
Location:  46.5485°N, 122.112°W
Report Text: KCLS 211335Z AUTO 23005KT 10SM FEW023 SCT080 SCT110 11/10 A2984 RMK AO2
Loading
Personal Weather Stations






























Interactive Weather Map New forecast layout! Learn more

10-Day Weather Forecast

Advertisements
Track Severe Weather on mobile